Time;durP1;ratioP1;P1;durP2;ratioP2;P2;SDS_P1;SDS_P2;PMS_P1;PMS_P2;Temp;Humidity;BMP_temperature;BMP_pressure;BME280_temperature;BME280_humidity;BME280_pressure;Samples;Min_cycle;Max_cycle;Signal;HPM_P1;HPM_P2
2024/04/14 08:33:31;;;;;;;11.28;9.65;;;;;;;23.64;46.90;99843.15;1887106;76;27402;-56
2024/04/14 08:35:58;;;;;;;47.33;44.40;;;;;;;23.65;48.09;99830.92;1858145;77;25439;-54
2024/04/14 08:38:24;;;;;;;6.33;4.60;;;;;;;24.02;48.04;99831.34;1788130;80;27544;-54
2024/04/14 08:40:58;;;;;;;69.00;64.70;;;;;;;24.53;46.83;99819.08;1820299;78;25515;-53
2024/04/14 08:43:27;;;;;;;6.78;4.40;;;;;;;25.09;46.64;99829.75;1788158;80;25566;-56
2024/04/14 08:45:56;;;;;;;6.83;5.47;;;;;;;25.45;44.91;99819.50;1820635;78;25623;-55
2024/04/14 08:48:28;;;;;;;7.25;4.97;;;;;;;25.34;43.61;99821.07;1788175;80;25523;-54
2024/04/14 08:50:57;;;;;;;7.92;4.65;;;;;;;24.83;43.78;99811.98;1820476;78;28123;-55
2024/04/14 08:53:25;;;;;;;;;;;;;;;24.81;44.81;99791.66;1759876;80;25637;-56
2024/04/14 08:55:55;;;;;;;8.45;4.65;;;;;;;25.04;44.60;99812.24;1820537;78;35260;-56
2024/04/14 08:58:23;;;;;;;;;;;;;;;24.81;44.54;99826.23;1790710;80;25787;-51
2024/04/14 09:04:50;;;;;;;8.53;5.08;;;;;;;23.99;44.86;99835.73;1788153;80;25694;-54
2024/04/14 09:07:19;;;;;;;6.60;4.27;;;;;;;23.43;45.92;99825.42;1820566;78;25597;-56
2024/04/14 09:09:50;;;;;;;7.17;4.75;;;;;;;23.29;46.54;99831.25;1788190;80;25585;-53
2024/04/14 09:12:19;;;;;;;9.08;4.85;;;;;;;23.18;46.62;99821.49;1820371;78;25646;-53
2024/04/14 09:14:51;;;;;;;8.83;5.40;;;;;;;22.88;46.39;99812.63;1788141;80;25541;-53
2024/04/14 09:17:21;;;;;;;8.40;5.22;;;;;;;22.64;47.41;99823.97;1820380;78;27474;-57
2024/04/14 09:19:50;;;;;;;10.32;5.67;;;;;;;22.28;48.39;99821.41;1788022;80;25581;-57
2024/04/14 09:22:20;;;;;;;14.80;6.50;;;;;;;21.79;50.40;99817.03;1820646;78;25431;-57
2024/04/14 09:24:48;;;;;;;10.28;6.15;;;;;;;21.28;53.07;99842.97;1788023;80;25612;-56
2024/04/14 09:27:18;;;;;;;12.13;6.53;;;;;;;20.78;53.99;99831.34;1788974;78;25566;-57
2024/04/14 09:29:49;;;;;;;78.83;74.10;;;;;;;20.51;56.40;99826.13;1788214;80;27018;-53
2024/04/14 09:32:20;;;;;;;42.13;38.23;;;;;;;20.63;59.63;99824.23;1822109;78;25652;-57
2024/04/14 09:34:51;;;;;;;9.68;6.25;;;;;;;20.74;58.91;99835.24;1793952;80;25399;-56
2024/04/14 09:37:22;;;;;;;10.18;6.75;;;;;;;20.75;59.34;99832.11;1826469;78;25838;-57
2024/04/14 09:39:54;;;;;;;9.50;6.22;;;;;;;20.82;60.04;99832.14;1794000;80;25475;-55
2024/04/14 09:42:24;;;;;;;9.45;6.15;;;;;;;20.81;59.48;99836.66;1826499;78;27600;-57
2024/04/14 09:44:54;;;;;;;40.28;37.28;;;;;;;20.78;60.11;99836.83;1793382;80;25580;-57
2024/04/14 09:47:23;;;;;;;27.82;24.15;;;;;;;20.77;59.63;99842.15;1825948;78;25601;-63
2024/04/14 09:49:56;;;;;;;12.63;8.20;;;;;;;20.85;60.21;99838.21;1793478;80;25553;-63
2024/04/14 09:52:25;;;;;;;8.13;6.15;;;;;;;20.85;58.59;99839.59;1793432;80;25562;-63
2024/04/14 09:54:57;;;;;;;9.80;6.05;;;;;;;20.75;58.07;99837.61;1762152;81;28181;-63
2024/04/14 09:57:26;;;;;;;9.38;6.55;;;;;;;20.75;58.61;99827.20;1793427;80;25452;-64
2024/04/14 09:59:56;;;;;;;9.23;6.10;;;;;;;20.83;58.30;99829.58;1762053;81;25603;-64
2024/04/14 10:02:33;;;;;;;7.10;5.87;;;;;;;21.11;58.79;99833.53;1793379;80;25391;-63
2024/04/14 10:05:04;;;;;;;14.78;6.40;;;;;;;21.41;57.50;99819.39;1761793;81;25404;-65
2024/04/14 10:07:33;;;;;;;8.18;5.65;;;;;;;21.64;56.97;99829.25;1793437;80;28013;-65
2024/04/14 10:10:06;;;;;;;10.10;6.73;;;;;;;21.75;56.51;99827.84;1762274;81;25617;-69
2024/04/14 10:12:37;;;;;;;7.55;5.75;;;;;;;21.87;55.58;99828.02;1793475;80;25628;-63
2024/04/14 10:15:08;;;;;;;10.88;9.30;;;;;;;22.01;55.58;99827.39;1762008;81;25793;-64
2024/04/14 10:17:36;;;;;;;17.85;16.15;;;;;;;22.21;54.73;99817.28;1793477;80;25667;-65
2024/04/14 10:20:17;;;;;;;16.15;12.95;;;;;;;22.28;54.19;99822.78;1762301;81;27830;-64
2024/04/14 10:22:48;;;;;;;14.63;10.25;;;;;;;22.31;54.08;99826.72;1762723;80;25461;-64
2024/04/14 10:25:29;;;;;;;11.35;8.15;;;;;;;22.46;53.55;99803.99;1762195;81;25621;-64
2024/04/14 10:28:03;;;;;;;8.08;6.40;;;;;;;22.44;52.97;99809.94;1793470;80;25579;-64
2024/04/14 10:30:31;;;;;;;7.65;5.95;;;;;;;22.31;52.74;99810.97;1762111;81;25411;-64
2024/04/14 10:33:05;;;;;;;10.82;6.78;;;;;;;22.08;52.74;99820.27;1790594;80;27251;-62
2024/04/14 10:35:33;;;;;;;7.30;5.95;;;;;;;21.78;52.92;99823.70;1756380;81;25711;-63
2024/04/14 10:38:02;;;;;;;9.18;5.33;;;;;;;21.51;53.20;99834.36;1787875;80;25612;-63
2024/04/14 10:40:30;;;;;;;11.37;8.03;;;;;;;21.23;53.52;99839.23;1756795;81;25614;-63
2024/04/14 10:42:56;;;;;;;13.88;9.18;;;;;;;21.02;54.29;99831.17;1787737;80;25519;-63
2024/04/14 10:45:31;;;;;;;12.55;7.67;;;;;;;21.03;55.01;99837.48;1756329;81;27386;-64
2024/04/14 10:47:59;;;;;;;10.23;5.87;;;;;;;21.11;55.49;99839.03;1787598;80;25512;-64
2024/04/14 10:50:28;;;;;;;63.60;59.65;;;;;;;21.33;55.72;99836.30;1756674;81;25547;-64
2024/04/14 10:52:57;;;;;;;34.48;32.08;;;;;;;21.61;55.76;99836.31;1787571;80;25413;-63
2024/04/14 10:55:26;;;;;;;17.90;16.40;;;;;;;22.05;56.85;99832.88;1756497;81;25452;-71
2024/04/14 10:57:53;;;;;;;8.98;5.10;;;;;;;22.70;54.09;99841.67;1787597;80;27611;-62
2024/04/14 11:00:25;;;;;;;51.95;48.48;;;;;;;23.06;52.46;99828.28;1756561;81;25683;-62
2024/04/14 11:02:54;;;;;;;74.25;69.67;;;;;;;23.10;52.14;99804.20;1787502;80;25450;-58
2024/04/14 11:05:25;;;;;;;70.42;66.17;;;;;;;23.18;51.40;99818.73;1756249;81;25607;-62
2024/04/14 11:07:56;;;;;;;6.97;4.70;;;;;;;23.31;50.87;99808.17;1787466;80;25499;-57
2024/04/14 11:10:26;;;;;;;5.12;4.10;;;;;;;23.43;47.38;99819.30;1756328;81;27259;-53
2024/04/14 11:12:56;;;;;;;5.42;4.00;;;;;;;23.25;47.90;99807.03;1787367;80;25450;-56
2024/04/14 11:15:27;;;;;;;54.40;50.70;;;;;;;23.12;47.43;99805.95;1756285;81;25307;-57
2024/04/14 11:17:57;;;;;;;39.78;37.28;;;;;;;22.94;46.14;99804.09;1787499;80;26198;-57
2024/04/14 11:20:25;;;;;;;69.55;64.97;;;;;;;23.09;46.90;99797.14;1756272;81;25472;-58
2024/04/14 11:22:52;;;;;;;37.75;34.30;;;;;;;23.32;45.36;99788.25;1787426;80;27734;-57
